Time;durP1;ratioP1;P1;durP2;ratioP2;P2;SDS_P1;SDS_P2;PMS_P1;PMS_P2;Temp;Humidity;BMP_temperature;BMP_pressure;BME280_temperature;BME280_humidity;BME280_pressure;Samples;Min_cycle;Max_cycle;Signal;HPM_P1;HPM_P2
2023/12/04 06:42:48;;;;;;;3.75;1.48;;;;;;;;;;6252200;22;20023;-84
2023/12/04 07:19:04;;;;;;;6.55;2.50;;;;;;;;;;6193861;23;20040;-85
2023/12/04 07:34:55;;;;;;;5.28;2.08;;;;;;;;;;6246909;22;20032;-83
2023/12/04 07:37:21;;;;;;;1.90;0.95;;;;;;;;;;6175573;22;20032;-83
2023/12/04 09:41:32;;;;;;;5.43;2.00;;;;;;;;;;6270324;22;20119;-83
2023/12/04 09:44:01;;;;;;;5.10;1.88;;;;;;;;;;6271684;22;20003;-82
2023/12/04 09:46:28;;;;;;;2.35;1.08;;;;;;;;;;6244648;22;20011;-83
2023/12/04 09:48:54;;;;;;;2.50;1.65;;;;;;;;;;6272221;22;20023;-83
2023/12/04 09:51:24;;;;;;;2.75;1.80;;;;;;;;;;6243705;22;20090;-83
2023/12/04 09:53:52;;;;;;;5.78;1.42;;;;;;;;;;6272146;22;20004;-82
2023/12/04 09:56:18;;;;;;;7.30;2.88;;;;;;;;;;6244887;22;20011;-83
2023/12/04 09:58:45;;;;;;;6.90;2.50;;;;;;;;;;6244044;22;20497;-83
2023/12/04 10:01:12;;;;;;;6.38;2.38;;;;;;;;;;6243929;22;20074;-83
2023/12/04 10:03:39;;;;;;;8.52;2.88;;;;;;;;;;6243449;22;20012;-84
2023/12/04 10:06:05;;;;;;;2.35;1.02;;;;;;;;;;6245458;22;20011;-84
2023/12/04 10:08:31;;;;;;;7.03;1.80;;;;;;;;;;6246792;22;20051;-85
2023/12/04 10:10:58;;;;;;;3.75;1.10;;;;;;;;;;6245923;22;20430;-85
2023/12/04 10:13:24;;;;;;;2.08;1.30;;;;;;;;;;6247548;22;20043;-85
2023/12/04 10:15:51;;;;;;;4.65;1.67;;;;;;;;;;6246859;22;20804;-84
2023/12/04 10:18:27;;;;;;;3.85;2.08;;;;;;;;;;6242608;22;20016;-87
2023/12/04 10:20:57;;;;;;;3.47;0.65;;;;;;;;;;6245050;22;20021;-86
2023/12/04 10:23:23;;;;;;;2.10;0.75;;;;;;;;;;6244975;22;20022;-85
2023/12/04 10:25:50;;;;;;;3.72;0.60;;;;;;;;;;6246921;22;20008;-85
2023/12/04 10:28:17;;;;;;;1.30;1.00;;;;;;;;;;6241456;22;20336;-84
2023/12/04 10:30:43;;;;;;;4.13;1.95;;;;;;;;;;6267075;22;20014;-86
2023/12/04 10:33:09;;;;;;;4.88;0.75;;;;;;;;;;6246868;22;20008;-87
2023/12/04 10:35:36;;;;;;;3.63;1.45;;;;;;;;;;6246533;22;20733;-88
2023/12/04 10:38:02;;;;;;;2.78;0.70;;;;;;;;;;6246554;22;20008;-86
2023/12/04 10:40:35;;;;;;;3.72;1.52;;;;;;;;;;6240613;23;20487;-86
2023/12/04 10:43:17;;;;;;;3.95;0.82;;;;;;;;;;6242190;23;20016;-85
2023/12/04 10:45:45;;;;;;;2.55;1.45;;;;;;;;;;6242358;23;20019;-83
2023/12/04 10:48:11;;;;;;;4.32;1.08;;;;;;;;;;6245591;22;20039;-84
2023/12/04 10:50:42;;;;;;;4.07;1.45;;;;;;;;;;6241265;23;20015;-84
2023/12/04 10:53:16;;;;;;;3.42;1.70;;;;;;;;;;6237766;23;21594;-84
2023/12/04 10:55:53;;;;;;;3.47;1.92;;;;;;;;;;6185249;23;20063;-84
2023/12/04 10:58:27;;;;;;;3.17;1.85;;;;;;;;;;6161053;23;20075;-84
2023/12/04 11:00:54;;;;;;;4.88;1.63;;;;;;;;;;6185676;23;20020;-84
2023/12/04 11:03:22;;;;;;;4.65;1.33;;;;;;;;;;6209603;23;20020;-84
2023/12/04 11:05:52;;;;;;;2.47;1.38;;;;;;;;;;6184163;23;20396;-83
2023/12/04 11:08:19;;;;;;;1.35;0.93;;;;;;;;;;6181059;23;20055;-84
2023/12/04 11:10:50;;;;;;;7.88;1.92;;;;;;;;;;6184990;23;20020;-85
2023/12/04 11:13:19;;;;;;;5.80;2.03;;;;;;;;;;6185532;23;20036;-84
2023/12/04 11:15:47;;;;;;;2.90;1.30;;;;;;;;;;6184523;23;20023;-85
2023/12/04 11:18:15;;;;;;;5.32;1.92;;;;;;;;;;6184573;23;20020;-84
2023/12/04 11:21:13;;;;;;;2.17;1.05;;;;;;;;;;6185333;23;20017;-86
2023/12/04 11:23:40;;;;;;;3.03;1.30;;;;;;;;;;6115600;23;20054;-86
2023/12/04 11:26:08;;;;;;;7.85;1.73;;;;;;;;;;6184413;23;20027;-85
2023/12/04 11:28:34;;;;;;;8.93;2.33;;;;;;;;;;6185778;23;20004;-85
2023/12/04 11:31:01;;;;;;;3.22;1.60;;;;;;;;;;6197873;23;20036;-84
2023/12/04 11:33:27;;;;;;;4.18;1.83;;;;;;;;;;6241888;23;20015;-85
2023/12/04 11:35:53;;;;;;;2.83;2.05;;;;;;;;;;6241429;23;20332;-86
2023/12/04 11:38:19;;;;;;;3.28;1.98;;;;;;;;;;6215215;23;20091;-85
2023/12/04 11:40:46;;;;;;;5.47;2.47;;;;;;;;;;6215515;23;20011;-85
2023/12/04 11:43:23;;;;;;;4.28;2.10;;;;;;;;;;6214222;23;20365;-83
2023/12/04 11:45:49;;;;;;;4.43;2.63;;;;;;;;;;6242130;23;20301;-84
2023/12/04 11:48:15;;;;;;;4.45;2.60;;;;;;;;;;6214818;23;20012;-84
2023/12/04 11:50:44;;;;;;;6.90;2.25;;;;;;;;;;6215078;23;20012;-84
2023/12/04 11:53:13;;;;;;;3.65;1.60;;;;;;;;;;6214682;23;20070;-84
2023/12/04 11:55:43;;;;;;;3.25;1.98;;;;;;;;;;6215531;23;20571;-85
2023/12/04 11:58:10;;;;;;;5.00;2.58;;;;;;;;;;6215321;23;20023;-83
2023/12/04 12:00:37;;;;;;;4.07;1.33;;;;;;;;;;6214870;23;20020;-87
2023/12/04 12:03:06;;;;;;;3.08;1.40;;;;;;;;;;6214083;23;20019;-82
2023/12/04 12:05:33;;;;;;;7.15;1.58;;;;;;;;;;6215754;23;20016;-82
2023/12/04 12:08:01;;;;;;;5.40;1.67;;;;;;;;;;6214229;23;20020;-82
2023/12/04 12:10:27;;;;;;;5.78;1.75;;;;;;;;;;6214209;23;20012;-83
2023/12/04 12:12:53;;;;;;;3.00;1.73;;;;;;;;;;6213920;23;20012;-83
2023/12/04 12:15:19;;;;;;;3.70;1.30;;;;;;;;;;6242362;23;20008;-83
2023/12/04 12:17:45;;;;;;;6.37;2.07;;;;;;;;;;6240824;23;20807;-81
2023/12/04 12:20:12;;;;;;;3.28;1.75;;;;;;;;;;6244950;23;20095;-81
2023/12/04 12:22:43;;;;;;;2.70;1.50;;;;;;;;;;6243387;23;20047;-82
2023/12/04 12:25:10;;;;;;;7.90;2.25;;;;;;;;;;6214958;23;20013;-81
2023/12/04 12:27:36;;;;;;;5.32;1.50;;;;;;;;;;6242531;23;20055;-82
2023/12/04 12:30:04;;;;;;;2.63;1.48;;;;;;;;;;6215040;23;20035;-82
2023/12/04 12:32:31;;;;;;;3.15;1.42;;;;;;;;;;6243483;23;20013;-80
2023/12/04 12:34:57;;;;;;;1.98;1.35;;;;;;;;;;6246000;23;20008;-81
2023/12/04 12:37:23;;;;;;;7.40;2.08;;;;;;;;;;6245427;23;20431;-81
2023/12/04 12:39:50;;;;;;;8.63;2.22;;;;;;;;;;6241662;23;20103;-83
2023/12/04 12:42:16;;;;;;;;;;;;;;;;;;6215200;23;20087;-82
2023/12/04 12:44:42;;;;;;;4.85;1.40;;;;;;;;;;6241760;23;20481;-84
2023/12/04 12:47:09;;;;;;;2.20;1.42;;;;;;;;;;6215472;23;20012;-84
2023/12/04 12:49:38;;;;;;;3.40;1.30;;;;;;;;;;6214167;23;20040;-84
2023/12/04 12:52:09;;;;;;;3.63;1.67;;;;;;;;;;6214591;23;20036;-83
2023/12/04 12:54:42;;;;;;;3.80;1.85;;;;;;;;;;6214713;23;20336;-84
2023/12/04 12:57:09;;;;;;;8.18;2.17;;;;;;;;;;6215842;23;20087;-84
2023/12/04 12:59:38;;;;;;;5.43;1.90;;;;;;;;;;6214947;23;20023;-84
2023/12/04 13:02:06;;;;;;;3.53;1.60;;;;;;;;;;6215977;23;20016;-84
2023/12/04 13:04:41;;;;;;;4.18;1.75;;;;;;;;;;6217171;23;20016;-84
2023/12/04 13:07:11;;;;;;;4.50;1.67;;;;;;;;;;6218021;23;20571;-84
2023/12/04 13:09:37;;;;;;;3.50;1.17;;;;;;;;;;6218011;23;20466;-84
2023/12/04 13:12:07;;;;;;;4.90;1.60;;;;;;;;;;6216854;23;20033;-84
2023/12/04 13:14:36;;;;;;;6.43;3.15;;;;;;;;;;6215422;23;20020;-84
2023/12/04 13:17:03;;;;;;;8.32;1.35;;;;;;;;;;6215241;23;20008;-84
2023/12/04 13:19:31;;;;;;;3.75;1.30;;;;;;;;;;6214841;23;20023;-84
2023/12/04 13:21:57;;;;;;;5.60;1.27;;;;;;;;;;6216105;23;20008;-84
2023/12/04 13:24:23;;;;;;;3.80;2.00;;;;;;;;;;6240980;23;20055;-84
2023/12/04 13:26:49;;;;;;;3.65;1.27;;;;;;;;;;6215129;23;20665;-84
2023/12/04 13:29:19;;;;;;;1.75;1.17;;;;;;;;;;6214726;23;20723;-84
2023/12/04 13:31:49;;;;;;;4.22;1.25;;;;;;;;;;6242496;23;20027;-85
2023/12/04 13:34:15;;;;;;;3.47;1.15;;;;;;;;;;6215427;23;20012;-84
2023/12/04 13:36:41;;;;;;;2.95;1.83;;;;;;;;;;6215551;23;20091;-84
2023/12/04 13:39:16;;;;;;;2.00;1.25;;;;;;;;;;6242022;23;20050;-84
2023/12/04 13:44:27;;;;;;;18.00;1.67;;;;;;;;;;6241181;23;20027;-84
2023/12/04 13:46:54;;;;;;;4.00;1.40;;;;;;;;;;6216494;23;20434;-84
2023/12/04 13:49:22;;;;;;;2.40;1.52;;;;;;;;;;6214829;23;20434;-85
2023/12/04 13:51:49;;;;;;;5.50;1.95;;;;;;;;;;6215827;23;20004;-85
2023/12/04 13:54:27;;;;;;;3.20;1.08;;;;;;;;;;6215237;23;20482;-84
2023/12/04 13:56:53;;;;;;;4.47;1.15;;;;;;;;;;6242999;23;20028;-84
2023/12/04 13:59:24;;;;;;;2.05;1.17;;;;;;;;;;6216449;23;20016;-85
2023/12/04 14:01:51;;;;;;;5.93;2.00;;;;;;;;;;6216113;23;20009;-84
2023/12/04 14:04:17;;;;;;;1.77;1.30;;;;;;;;;;6215679;23;20036;-84
2023/12/04 14:06:44;;;;;;;7.57;1.80;;;;;;;;;;6215967;23;20091;-85
2023/12/04 14:09:14;;;;;;;7.82;2.35;;;;;;;;;;6216118;23;20004;-85
2023/12/04 14:11:44;;;;;;;4.22;1.48;;;;;;;;;;6217729;23;20019;-83
2023/12/04 14:14:13;;;;;;;5.47;2.60;;;;;;;;;;6219106;23;20606;-83
2023/12/04 14:16:45;;;;;;;7.25;1.55;;;;;;;;;;6219306;23;20015;-83
2023/12/04 14:19:12;;;;;;;1.92;1.60;;;;;;;;;;6219900;23;20000;-83
2023/12/04 14:21:39;;;;;;;3.92;2.03;;;;;;;;;;6219097;23;20047;-83
2023/12/04 14:24:06;;;;;;;11.70;2.03;;;;;;;;;;6245676;23;20320;-83
2023/12/04 14:26:32;;;;;;;4.07;2.08;;;;;;;;;;6219041;23;20009;-82
2023/12/04 14:29:00;;;;;;;3.33;1.40;;;;;;;;;;6247657;23;19996;-82
2023/12/04 14:31:26;;;;;;;6.45;1.88;;;;;;;;;;6219464;23;20043;-81
2023/12/04 14:33:53;;;;;;;4.38;1.77;;;;;;;;;;6245787;23;20491;-81
2023/12/04 14:36:19;;;;;;;8.68;3.47;;;;;;;;;;6245393;23;20017;-81
2023/12/04 14:38:45;;;;;;;5.47;1.67;;;;;;;;;;6248282;23;20004;-83
2023/12/04 14:41:21;;;;;;;4.10;2.25;;;;;;;;;;6214774;23;20070;-80
2023/12/04 14:43:47;;;;;;;4.55;2.17;;;;;;;;;;6241967;23;20434;-79
2023/12/04 14:46:13;;;;;;;5.00;2.53;;;;;;;;;;6241781;23;20087;-80
2023/12/04 14:48:42;;;;;;;4.97;2.55;;;;;;;;;;6242360;23;20584;-80
2023/12/04 14:51:11;;;;;;;2.78;1.98;;;;;;;;;;6244301;23;20609;-79
2023/12/04 15:12:57;;;;;;;;;;;;;;;;;;6243752;23;20023;-83
2023/12/04 15:20:59;;;;;;;;;;;;;;;;;;6243819;23;20461;-83
2023/12/04 15:23:25;;;;;;;;;;;;;;;;;;6243021;23;19910;-83
2023/12/04 15:25:51;;;;;;;;;;;;;;;;;;6241619;23;19911;-83
2023/12/04 15:28:17;;;;;;;;;;;;;;;;;;6241246;23;19903;-83
2023/12/04 15:30:44;;;;;;;2.88;1.75;;;;;;;;;;6242472;23;20311;-82
2023/12/04 15:33:10;;;;;;;6.82;2.22;;;;;;;;;;6214164;23;20371;-82
2023/12/04 15:35:40;;;;;;;5.03;1.58;;;;;;;;;;6242519;23;20008;-81
2023/12/04 15:38:06;;;;;;;4.82;2.38;;;;;;;;;;6242717;23;20051;-83
2023/12/04 15:40:32;;;;;;;3.30;1.80;;;;;;;;;;6214712;23;20835;-83
2023/12/04 15:42:58;;;;;;;;;;;;;;;;;;6243598;23;20098;-83
2023/12/04 15:45:24;;;;;;;3.63;2.30;;;;;;;;;;6242980;23;20005;-84
2023/12/04 15:47:50;;;;;;;4.93;2.13;;;;;;;;;;6219459;23;20366;-84
2023/12/04 15:50:16;;;;;;;2.28;1.08;;;;;;;;;;6219783;23;20008;-85
2023/12/04 15:52:43;;;;;;;8.40;2.25;;;;;;;;;;6218249;23;20358;-85
2023/12/04 15:55:10;;;;;;;7.13;1.75;;;;;;;;;;6220393;23;20008;-85
2023/12/04 15:57:36;;;;;;;1.75;1.08;;;;;;;;;;6219900;23;20015;-85
2023/12/04 16:00:03;;;;;;;2.55;1.33;;;;;;;;;;6219591;23;20012;-84
2023/12/04 16:02:29;;;;;;;;;;;;;;;;;;6246987;23;20118;-84
2023/12/04 16:04:55;;;;;;;4.45;0.47;;;;;;;;;;6243854;23;20013;-85
2023/12/04 16:07:21;;;;;;;2.00;1.20;;;;;;;;;;6218995;23;20372;-85
2023/12/04 16:09:47;;;;;;;4.90;1.92;;;;;;;;;;6218790;23;20054;-85
2023/12/04 16:12:15;;;;;;;3.08;0.95;;;;;;;;;;6217824;23;20004;-84
2023/12/04 16:14:41;;;;;;;0.55;0.10;;;;;;;;;;6218456;23;20004;-84
2023/12/04 16:17:07;;;;;;;2.58;0.70;;;;;;;;;;6216241;23;20362;-84
2023/12/04 16:19:33;;;;;;;4.82;1.25;;;;;;;;;;6216701;23;20690;-83
2023/12/04 16:22:00;;;;;;;5.13;1.98;;;;;;;;;;6217562;23;20051;-84
2023/12/04 16:24:27;;;;;;;2.45;0.90;;;;;;;;;;6217880;23;20016;-84
2023/12/04 16:26:55;;;;;;;2.85;0.68;;;;;;;;;;6244352;23;20416;-85
2023/12/04 16:29:21;;;;;;;2.80;1.00;;;;;;;;;;6218086;23;20004;-84
2023/12/04 16:31:47;;;;;;;2.03;0.93;;;;;;;;;;6244837;23;20016;-84
2023/12/04 16:34:14;;;;;;;1.52;0.68;;;;;;;;;;6246043;23;20107;-85
2023/12/04 16:36:40;;;;;;;3.42;1.48;;;;;;;;;;6216247;23;20091;-81
2023/12/04 16:39:06;;;;;;;6.45;1.40;;;;;;;;;;6214962;23;20031;-80
2023/12/04 16:41:32;;;;;;;3.17;0.98;;;;;;;;;;6242755;23;20138;-81
2023/12/04 16:43:58;;;;;;;2.20;0.88;;;;;;;;;;6242289;23;20000;-82
2023/12/04 16:48:52;;;;;;;0.17;0.13;;;;;;;;;;6271102;22;20024;-81
2023/12/04 16:51:18;;;;;;;5.32;0.50;;;;;;;;;;6245132;22;20016;-80
2023/12/04 16:53:44;;;;;;;1.13;0.43;;;;;;;;;;6272627;22;20050;-82
2023/12/04 16:56:14;;;;;;;3.00;0.30;;;;;;;;;;6245656;22;20007;-81
2023/12/04 16:58:41;;;;;;;3.58;0.75;;;;;;;;;;6240401;23;20011;-81
2023/12/04 17:01:07;;;;;;;2.35;0.80;;;;;;;;;;6243010;22;20098;-81
2023/12/04 17:03:34;;;;;;;2.67;1.13;;;;;;;;;;6240111;23;20424;-81
2023/12/04 17:06:00;;;;;;;3.95;0.85;;;;;;;;;;6241568;22;20508;-80
2023/12/04 17:08:26;;;;;;;6.38;1.77;;;;;;;;;;6240651;23;20000;-83
2023/12/04 17:10:52;;;;;;;5.07;1.38;;;;;;;;;;6241467;23;20028;-81
2023/12/04 17:13:18;;;;;;;2.80;1.15;;;;;;;;;;6245616;22;20019;-83
2023/12/04 17:15:44;;;;;;;6.25;2.97;;;;;;;;;;6246619;22;20008;-81
2023/12/04 17:18:10;;;;;;;3.13;1.70;;;;;;;;;;6245532;22;20015;-83
2023/12/04 17:20:36;;;;;;;4.65;2.22;;;;;;;;;;6245026;22;20745;-82
2023/12/04 17:23:03;;;;;;;2.42;1.38;;;;;;;;;;6244885;22;20019;-83
2023/12/04 17:25:30;;;;;;;0.80;0.47;;;;;;;;;;6272491;22;20014;-82
2023/12/04 17:27:56;;;;;;;5.35;2.00;;;;;;;;;;6245291;22;20090;-84
2023/12/04 17:30:22;;;;;;;4.30;3.22;;;;;;;;;;6272586;22;20007;-82
2023/12/04 17:32:48;;;;;;;10.32;3.47;;;;;;;;;;6245607;22;20024;-83
2023/12/04 17:35:14;;;;;;;6.25;2.00;;;;;;;;;;6272227;22;20477;-84
2023/12/04 17:37:41;;;;;;;8.25;2.33;;;;;;;;;;6245272;22;20016;-84
2023/12/04 17:40:08;;;;;;;2.83;1.55;;;;;;;;;;6272565;22;20300;-84
2023/12/04 17:42:34;;;;;;;2.97;1.75;;;;;;;;;;6272361;22;20015;-84
2023/12/04 17:45:01;;;;;;;5.85;2.00;;;;;;;;;;6245182;22;20066;-85
2023/12/04 17:47:27;;;;;;;4.43;1.98;;;;;;;;;;6245311;22;20081;-83
2023/12/04 17:49:53;;;;;;;3.03;1.30;;;;;;;;;;6245440;22;20082;-82
2023/12/04 17:52:20;;;;;;;5.85;2.40;;;;;;;;;;6271888;22;20078;-82
2023/12/04 17:54:46;;;;;;;7.70;2.63;;;;;;;;;;6245580;22;20039;-83
2023/12/04 17:57:13;;;;;;;5.82;2.08;;;;;;;;;;6245248;22;20435;-82
2023/12/04 17:59:39;;;;;;;4.18;2.20;;;;;;;;;;6244859;22;20004;-81
2023/12/04 18:02:09;;;;;;;10.07;2.70;;;;;;;;;;6245169;22;20097;-82
2023/12/04 18:04:35;;;;;;;4.20;1.95;;;;;;;;;;6273038;22;20008;-83
2023/12/04 18:07:04;;;;;;;4.13;1.52;;;;;;;;;;6241681;22;20012;-86
2023/12/04 18:09:31;;;;;;;4.95;2.53;;;;;;;;;;6216072;23;20008;-83
2023/12/04 18:12:03;;;;;;;8.85;1.70;;;;;;;;;;6214124;23;20006;-86
2023/12/04 18:14:28;;;;;;;5.30;1.75;;;;;;;;;;6214898;23;20011;-86
2023/12/04 18:16:57;;;;;;;11.50;3.17;;;;;;;;;;6215302;23;20416;-86
2023/12/04 18:19:23;;;;;;;3.28;1.73;;;;;;;;;;6215271;23;20004;-84
2023/12/04 18:21:49;;;;;;;7.63;2.53;;;;;;;;;;6214894;23;20028;-85
2023/12/04 18:24:17;;;;;;;2.88;1.30;;;;;;;;;;6216178;23;20089;-86
2023/12/04 18:26:44;;;;;;;6.10;2.03;;;;;;;;;;6216821;23;20047;-85
2023/12/04 18:29:10;;;;;;;7.57;2.47;;;;;;;;;;6217183;23;20012;-84
2023/12/04 18:31:42;;;;;;;7.10;2.25;;;;;;;;;;6215924;23;20350;-87
2023/12/04 18:34:10;;;;;;;3.50;1.35;;;;;;;;;;6217202;23;20102;-83
2023/12/04 18:36:42;;;;;;;6.45;2.03;;;;;;;;;;6215551;23;20015;-84
2023/12/04 18:39:08;;;;;;;9.00;2.72;;;;;;;;;;6216095;23;20027;-83
2023/12/04 18:41:34;;;;;;;3.22;1.40;;;;;;;;;;6216410;23;20014;-83
2023/12/04 18:44:06;;;;;;;9.95;2.75;;;;;;;;;;6243164;23;20066;-85
2023/12/04 18:46:32;;;;;;;3.63;1.55;;;;;;;;;;6216534;23;20008;-83
2023/12/04 18:48:59;;;;;;;6.00;1.42;;;;;;;;;;6243299;23;20012;-83
2023/12/04 18:51:25;;;;;;;7.40;3.90;;;;;;;;;;6216078;23;20432;-82
2023/12/04 18:53:51;;;;;;;5.25;2.33;;;;;;;;;;6215921;23;20135;-82
2023/12/04 18:56:17;;;;;;;6.43;2.10;;;;;;;;;;6216122;23;20004;-82
2023/12/04 18:58:43;;;;;;;3.72;2.17;;;;;;;;;;6216692;23;20027;-83
2023/12/04 19:01:09;;;;;;;6.95;3.00;;;;;;;;;;6242957;23;20000;-83
2023/12/04 19:03:35;;;;;;;9.40;4.28;;;;;;;;;;6216514;23;20034;-84
2023/12/04 19:06:01;;;;;;;12.07;4.32;;;;;;;;;;6215996;23;20095;-84
2023/12/04 19:08:27;;;;;;;4.70;2.50;;;;;;;;;;6217446;23;20020;-86
2023/12/04 19:10:53;;;;;;;3.05;2.20;;;;;;;;;;6217934;23;20009;-86
2023/12/04 19:13:19;;;;;;;2.95;1.33;;;;;;;;;;6216977;23;20008;-86
2023/12/04 19:15:45;;;;;;;1.92;0.73;;;;;;;;;;6217307;23;20012;-85
2023/12/04 19:18:11;;;;;;;2.38;1.55;;;;;;;;;;6216436;23;20035;-86
2023/12/04 19:20:37;;;;;;;2.17;0.68;;;;;;;;;;6216697;23;20011;-84
2023/12/04 19:23:03;;;;;;;;;;;;;;;;;;6202103;22;20025;-86
2023/12/04 19:25:34;;;;;;;4.90;1.95;;;;;;;;;;6185192;23;19942;-81
2023/12/04 19:28:09;;;;;;;4.43;1.27;;;;;;;;;;6211721;23;20008;-87
2023/12/04 19:30:35;;;;;;;5.60;1.80;;;;;;;;;;6186312;23;20013;-83
2023/12/04 19:33:02;;;;;;;3.92;1.55;;;;;;;;;;6186126;23;20008;-82
2023/12/04 19:35:28;;;;;;;0.47;0.35;;;;;;;;;;6211829;23;20013;-82
2023/12/04 19:37:54;;;;;;;1.88;1.00;;;;;;;;;;6212066;23;20008;-81
2023/12/04 19:40:20;;;;;;;2.03;0.57;;;;;;;;;;6185427;23;20020;-83
2023/12/04 19:42:46;;;;;;;1.70;0.63;;;;;;;;;;6185589;23;20013;-81
2023/12/04 19:45:13;;;;;;;1.40;0.52;;;;;;;;;;6185998;23;20615;-81
2023/12/04 19:47:39;;;;;;;5.85;3.58;;;;;;;;;;6212905;23;20001;-81
2023/12/04 19:50:10;;;;;;;2.42;1.90;;;;;;;;;;6186006;23;20363;-80
2023/12/04 19:52:36;;;;;;;2.78;1.55;;;;;;;;;;6212575;23;20024;-80
2023/12/04 19:55:03;;;;;;;0.55;0.45;;;;;;;;;;6212704;23;20016;-80
2023/12/04 19:57:29;;;;;;;0.70;0.28;;;;;;;;;;6211883;23;20009;-82
2023/12/04 19:59:55;;;;;;;4.50;1.65;;;;;;;;;;6212242;23;20325;-82
2023/12/04 20:02:21;;;;;;;7.10;3.40;;;;;;;;;;6212428;23;20009;-82
2023/12/04 20:04:47;;;;;;;5.90;1.90;;;;;;;;;;6213328;23;20015;-82
2023/12/04 20:07:13;;;;;;;3.90;1.88;;;;;;;;;;6212935;23;20381;-82
2023/12/04 20:09:39;;;;;;;4.13;1.40;;;;;;;;;;6211801;23;20012;-83
2023/12/04 20:12:19;;;;;;;2.10;0.77;;;;;;;;;;6185390;23;20059;-85
2023/12/04 20:14:54;;;;;;;7.00;2.13;;;;;;;;;;6185246;23;20008;-84
2023/12/04 20:17:20;;;;;;;2.30;1.45;;;;;;;;;;6184365;23;20020;-84
2023/12/04 20:19:49;;;;;;;1.60;0.70;;;;;;;;;;6184150;23;21003;-85
2023/12/04 20:22:21;;;;;;;2.85;0.93;;;;;;;;;;6183255;23;20318;-85
2023/12/04 20:24:47;;;;;;;;;;;;;;;;;;6184756;23;20031;-84
2023/12/04 20:27:21;;;;;;;1.85;0.80;;;;;;;;;;6183483;23;19912;-85
2023/12/04 20:29:50;;;;;;;2.90;1.48;;;;;;;;;;6211560;23;20476;-85
2023/12/04 20:32:19;;;;;;;0.98;0.50;;;;;;;;;;6185079;23;20019;-84
2023/12/04 20:34:45;;;;;;;1.00;0.43;;;;;;;;;;6186230;23;20599;-84
2023/12/04 20:37:11;;;;;;;2.28;0.98;;;;;;;;;;6212273;23;20055;-84
2023/12/04 20:39:39;;;;;;;3.22;1.17;;;;;;;;;;6185273;23;20004;-85
2023/12/04 20:42:05;;;;;;;4.00;1.50;;;;;;;;;;6184529;23;20016;-85
2023/12/04 20:44:31;;;;;;;6.88;2.53;;;;;;;;;;6185288;23;20013;-84
2023/12/04 20:47:02;;;;;;;2.38;1.35;;;;;;;;;;6211462;23;20013;-84
2023/12/04 20:49:31;;;;;;;4.88;1.83;;;;;;;;;;6185580;23;20009;-85
2023/12/04 20:51:59;;;;;;;2.25;0.75;;;;;;;;;;6185140;23;20019;-85
2023/12/04 20:54:36;;;;;;;2.10;0.90;;;;;;;;;;6184829;23;20012;-85
2023/12/04 20:57:11;;;;;;;1.48;0.75;;;;;;;;;;6184730;23;20088;-85
2023/12/04 20:59:43;;;;;;;2.15;0.60;;;;;;;;;;6183974;23;20012;-85
2023/12/04 21:02:12;;;;;;;3.00;1.27;;;;;;;;;;6211709;23;20043;-84
2023/12/04 21:04:40;;;;;;;1.10;0.45;;;;;;;;;;6184961;23;20235;-84
2023/12/04 21:07:06;;;;;;;4.88;0.90;;;;;;;;;;6184621;23;20011;-84
2023/12/04 21:09:42;;;;;;;1.85;0.73;;;;;;;;;;6185060;23;20089;-84
2023/12/04 21:12:08;;;;;;;4.22;0.70;;;;;;;;;;6184908;23;20050;-85
2023/12/04 21:14:40;;;;;;;2.33;1.02;;;;;;;;;;6185133;23;20087;-85
2023/12/04 21:17:08;;;;;;;2.50;0.82;;;;;;;;;;6184514;23;20015;-85
2023/12/04 21:19:34;;;;;;;0.82;0.38;;;;;;;;;;6185259;23;20459;-84
2023/12/04 21:22:09;;;;;;;0.82;0.30;;;;;;;;;;6184910;23;20008;-84
2023/12/04 21:24:38;;;;;;;3.10;0.90;;;;;;;;;;6183668;23;20435;-84
2023/12/04 21:27:10;;;;;;;6.88;1.23;;;;;;;;;;6184169;23;20375;-85
2023/12/04 21:29:38;;;;;;;6.32;0.75;;;;;;;;;;6184702;23;20012;-84
2023/12/04 21:32:08;;;;;;;1.17;0.80;;;;;;;;;;6183364;23;20008;-84
2023/12/04 21:34:40;;;;;;;2.70;1.23;;;;;;;;;;6185238;23;20023;-85
2023/12/04 21:37:18;;;;;;;6.32;1.45;;;;;;;;;;6185609;23;20452;-85
2023/12/04 21:39:51;;;;;;;3.50;1.55;;;;;;;;;;6211825;23;20004;-85
2023/12/04 21:42:20;;;;;;;5.85;1.63;;;;;;;;;;6185599;23;20020;-84
2023/12/04 21:44:46;;;;;;;;;;;;;;;;;;6184347;23;20727;-85
2023/12/04 21:47:12;;;;;;;;;;;;;;;;;;6185439;23;19904;-85
2023/12/04 21:49:38;;;;;;;2.90;1.17;;;;;;;;;;6184176;23;19946;-84
2023/12/04 21:52:12;;;;;;;3.05;0.85;;;;;;;;;;6185095;23;20012;-85
2023/12/04 21:54:41;;;;;;;4.78;0.93;;;;;;;;;;6184106;23;20472;-84
2023/12/04 21:57:09;;;;;;;4.28;1.45;;;;;;;;;;6184646;23;20507;-84
2023/12/04 21:59:36;;;;;;;7.35;2.83;;;;;;;;;;6185808;23;20006;-84
2023/12/04 22:02:02;;;;;;;1.15;1.05;;;;;;;;;;6186939;23;20329;-84
2023/12/04 22:04:28;;;;;;;3.08;1.40;;;;;;;;;;6213713;23;20008;-85
2023/12/04 22:06:57;;;;;;;3.78;1.23;;;;;;;;;;6187662;23;20032;-84
2023/12/04 22:09:33;;;;;;;;;;;;;;;;;;;;;
2023/12/04 22:12:05;;;;;;;3.95;1.67;;;;;;;;;;6214389;23;20685;-85
2023/12/04 22:14:34;;;;;;;5.40;1.60;;;;;;;;;;6185144;23;20377;-84
2023/12/04 22:17:00;;;;;;;8.18;2.38;;;;;;;;;;6187084;23;20013;-84
2023/12/04 22:19:26;;;;;;;4.57;2.30;;;;;;;;;;6186732;23;20028;-84
2023/12/04 22:21:59;;;;;;;2.05;1.08;;;;;;;;;;6186638;23;20005;-85
2023/12/04 22:24:26;;;;;;;5.47;1.27;;;;;;;;;;6212992;23;20024;-85
2023/12/04 22:26:52;;;;;;;1.73;0.95;;;;;;;;;;6213136;23;20008;-84
2023/12/04 22:29:18;;;;;;;;;;;;;;;;;;6186901;23;20005;-84
2023/12/04 22:31:48;;;;;;;0.65;0.32;;;;;;;;;;6186085;23;19999;-84
2023/12/04 22:34:14;;;;;;;1.45;0.63;;;;;;;;;;6213180;23;20008;-83
2023/12/04 22:36:40;;;;;;;3.92;0.82;;;;;;;;;;6186331;23;20012;-84
2023/12/04 22:39:17;;;;;;;5.25;1.48;;;;;;;;;;6186889;23;20425;-85
2023/12/04 22:41:43;;;;;;;2.28;1.17;;;;;;;;;;6186491;23;20099;-84
2023/12/04 22:44:09;;;;;;;4.33;1.50;;;;;;;;;;6185391;23;20362;-84
2023/12/04 22:46:35;;;;;;;3.80;2.13;;;;;;;;;;6184580;23;20383;-84
2023/12/04 22:49:01;;;;;;;2.55;0.63;;;;;;;;;;6213429;23;20075;-83
2023/12/04 22:51:27;;;;;;;4.05;1.77;;;;;;;;;;6186144;23;20078;-84
2023/12/04 22:53:55;;;;;;;4.68;1.45;;;;;;;;;;6186438;23;20515;-84
2023/12/04 22:56:24;;;;;;;2.58;1.35;;;;;;;;;;6185889;23;20027;-84
2023/12/04 22:58:50;;;;;;;2.58;1.08;;;;;;;;;;6187017;23;20008;-84
2023/12/04 23:01:22;;;;;;;6.32;1.50;;;;;;;;;;6186706;23;20013;-84
2023/12/04 23:03:49;;;;;;;;;;;;;;;;;;6187590;23;20039;-84
2023/12/04 23:06:17;;;;;;;1.63;1.08;;;;;;;;;;6186177;23;19931;-84
2023/12/04 23:08:44;;;;;;;4.38;0.60;;;;;;;;;;6187108;23;20004;-85
2023/12/04 23:11:13;;;;;;;2.80;1.50;;;;;;;;;;6187090;23;20086;-85
2023/12/04 23:13:50;;;;;;;1.80;0.90;;;;;;;;;;6214000;23;20116;-85
2023/12/04 23:16:19;;;;;;;4.80;2.40;;;;;;;;;;6186084;23;20013;-85
2023/12/04 23:18:45;;;;;;;4.70;2.38;;;;;;;;;;6186799;23;20111;-85
2023/12/04 23:21:24;;;;;;;2.55;1.00;;;;;;;;;;6186126;23;20048;-85
2023/12/04 23:23:53;;;;;;;2.00;0.55;;;;;;;;;;6179342;23;20017;-86
2023/12/04 23:26:24;;;;;;;4.82;1.42;;;;;;;;;;6179819;23;20108;-86
2023/12/04 23:31:48;;;;;;;9.00;5.63;;;;;;;;;;6179409;23;20024;-84
2023/12/04 23:34:26;;;;;;;5.88;2.63;;;;;;;;;;6180155;23;20009;-84
2023/12/04 23:36:55;;;;;;;5.82;2.10;;;;;;;;;;6180080;23;20064;-85
2023/12/04 23:39:35;;;;;;;9.48;2.08;;;;;;;;;;6180466;23;20858;-84
2023/12/04 23:42:08;;;;;;;3.10;1.42;;;;;;;;;;6178665;23;20021;-85
2023/12/04 23:44:38;;;;;;;4.40;1.75;;;;;;;;;;6180072;23;20490;-85
2023/12/04 23:47:08;;;;;;;2.83;1.33;;;;;;;;;;6179407;23;20009;-85
2023/12/04 23:49:34;;;;;;;3.10;1.60;;;;;;;;;;6186781;23;20020;-85
2023/12/04 23:52:11;;;;;;;10.07;4.82;;;;;;;;;;6186214;23;20005;-85
2023/12/04 23:54:57;;;;;;;13.07;6.57;;;;;;;;;;6186338;23;20013;-85
2023/12/04 23:57:26;;;;;;;6.68;4.10;;;;;;;;;;6185981;23;20050;-85
2023/12/04 23:59:54;;;;;;;;;;;;;;;;;;6186583;23;20016;-84
